sensor_id;sensor_type;location;lat;lon;timestamp;P1;durP1;ratioP1;P2;durP2;ratioP2
76610;SDS011;65503;48.534;9.062;2024-01-07T00:01:39;22.77;;;9.23;;
76610;SDS011;65503;48.534;9.062;2024-01-07T00:04:05;25.23;;;10.32;;
76610;SDS011;65503;48.534;9.062;2024-01-07T00:06:32;26.65;;;10.52;;
76610;SDS011;65503;48.534;9.062;2024-01-07T00:08:58;24.05;;;9.80;;
76610;SDS011;65503;48.534;9.062;2024-01-07T00:11:25;21.20;;;9.57;;
76610;SDS011;65503;48.534;9.062;2024-01-07T00:13:51;23.77;;;9.10;;
76610;SDS011;65503;48.534;9.062;2024-01-07T00:16:18;30.48;;;10.77;;
76610;SDS011;65503;48.534;9.062;2024-01-07T00:18:44;20.83;;;8.43;;
76610;SDS011;65503;48.534;9.062;2024-01-07T00:21:11;24.75;;;10.70;;
76610;SDS011;65503;48.534;9.062;2024-01-07T00:23:38;21.67;;;9.15;;
76610;SDS011;65503;48.534;9.062;2024-01-07T00:26:04;20.63;;;9.02;;
76610;SDS011;65503;48.534;9.062;2024-01-07T00:28:31;23.17;;;10.00;;
76610;SDS011;65503;48.534;9.062;2024-01-07T00:30:57;20.13;;;9.32;;
76610;SDS011;65503;48.534;9.062;2024-01-07T00:33:24;21.92;;;10.35;;
76610;SDS011;65503;48.534;9.062;2024-01-07T00:35:51;21.40;;;8.48;;
76610;SDS011;65503;48.534;9.062;2024-01-07T00:38:18;22.98;;;9.52;;
76610;SDS011;65503;48.534;9.062;2024-01-07T00:40:44;22.27;;;9.63;;
76610;SDS011;65503;48.534;9.062;2024-01-07T00:43:11;23.17;;;9.82;;
76610;SDS011;65503;48.534;9.062;2024-01-07T00:45:38;20.30;;;8.80;;
76610;SDS011;65503;48.534;9.062;2024-01-07T00:48:04;21.08;;;9.35;;
76610;SDS011;65503;48.534;9.062;2024-01-07T00:50:31;24.67;;;9.27;;
76610;SDS011;65503;48.534;9.062;2024-01-07T00:52:58;22.83;;;10.00;;
76610;SDS011;65503;48.534;9.062;2024-01-07T00:55:24;24.52;;;10.00;;
76610;SDS011;65503;48.534;9.062;2024-01-07T00:57:51;23.15;;;9.75;;
76610;SDS011;65503;48.534;9.062;2024-01-07T01:00:17;25.25;;;9.77;;
76610;SDS011;65503;48.534;9.062;2024-01-07T01:02:45;24.65;;;9.77;;
76610;SDS011;65503;48.534;9.062;2024-01-07T01:05:11;21.55;;;9.30;;
76610;SDS011;65503;48.534;9.062;2024-01-07T01:07:38;25.00;;;9.32;;
76610;SDS011;65503;48.534;9.062;2024-01-07T01:10:05;27.40;;;10.93;;
76610;SDS011;65503;48.534;9.062;2024-01-07T01:12:32;26.38;;;10.68;;
76610;SDS011;65503;48.534;9.062;2024-01-07T01:14:59;25.48;;;11.00;;
76610;SDS011;65503;48.534;9.062;2024-01-07T01:17:25;23.60;;;9.75;;
76610;SDS011;65503;48.534;9.062;2024-01-07T01:19:52;22.25;;;8.85;;
76610;SDS011;65503;48.534;9.062;2024-01-07T01:22:18;21.85;;;9.02;;
76610;SDS011;65503;48.534;9.062;2024-01-07T01:24:45;22.92;;;9.93;;
76610;SDS011;65503;48.534;9.062;2024-01-07T01:27:12;25.90;;;9.68;;
76610;SDS011;65503;48.534;9.062;2024-01-07T01:29:40;28.25;;;10.73;;
76610;SDS011;65503;48.534;9.062;2024-01-07T01:32:06;28.15;;;10.95;;
76610;SDS011;65503;48.534;9.062;2024-01-07T01:34:33;24.80;;;10.30;;
76610;SDS011;65503;48.534;9.062;2024-01-07T01:36:59;26.30;;;10.43;;
76610;SDS011;65503;48.534;9.062;2024-01-07T01:39:26;26.20;;;10.23;;
76610;SDS011;65503;48.534;9.062;2024-01-07T01:41:54;24.33;;;10.20;;
76610;SDS011;65503;48.534;9.062;2024-01-07T01:44:21;27.02;;;10.68;;
76610;SDS011;65503;48.534;9.062;2024-01-07T01:46:48;26.70;;;9.80;;
76610;SDS011;65503;48.534;9.062;2024-01-07T01:49:14;25.65;;;9.98;;
76610;SDS011;65503;48.534;9.062;2024-01-07T01:51:41;26.38;;;10.30;;
76610;SDS011;65503;48.534;9.062;2024-01-07T01:54:08;27.25;;;10.77;;
76610;SDS011;65503;48.534;9.062;2024-01-07T01:56:35;23.55;;;9.50;;
76610;SDS011;65503;48.534;9.062;2024-01-07T01:59:02;26.65;;;10.77;;
76610;SDS011;65503;48.534;9.062;2024-01-07T02:01:28;22.77;;;10.45;;
76610;SDS011;65503;48.534;9.062;2024-01-07T02:03:55;23.48;;;10.13;;
76610;SDS011;65503;48.534;9.062;2024-01-07T02:06:22;24.10;;;10.10;;
76610;SDS011;65503;48.534;9.062;2024-01-07T02:08:49;20.88;;;9.38;;
76610;SDS011;65503;48.534;9.062;2024-01-07T02:11:17;25.50;;;10.50;;
76610;SDS011;65503;48.534;9.062;2024-01-07T02:13:44;22.58;;;9.35;;
76610;SDS011;65503;48.534;9.062;2024-01-07T02:16:11;22.20;;;9.48;;
76610;SDS011;65503;48.534;9.062;2024-01-07T02:18:40;23.45;;;10.15;;
76610;SDS011;65503;48.534;9.062;2024-01-07T02:21:12;22.52;;;10.20;;
76610;SDS011;65503;48.534;9.062;2024-01-07T02:23:39;20.48;;;9.60;;
76610;SDS011;65503;48.534;9.062;2024-01-07T02:26:06;22.92;;;9.63;;
76610;SDS011;65503;48.534;9.062;2024-01-07T02:28:32;25.08;;;9.70;;
76610;SDS011;65503;48.534;9.062;2024-01-07T02:30:59;20.60;;;9.68;;
76610;SDS011;65503;48.534;9.062;2024-01-07T02:33:27;22.88;;;10.57;;
76610;SDS011;65503;48.534;9.062;2024-01-07T02:35:54;23.67;;;9.68;;
76610;SDS011;65503;48.534;9.062;2024-01-07T02:38:20;24.63;;;10.40;;
76610;SDS011;65503;48.534;9.062;2024-01-07T02:40:47;20.40;;;9.05;;
76610;SDS011;65503;48.534;9.062;2024-01-07T02:43:13;23.05;;;9.38;;
76610;SDS011;65503;48.534;9.062;2024-01-07T02:45:40;22.40;;;8.88;;
76610;SDS011;65503;48.534;9.062;2024-01-07T02:48:06;22.05;;;9.32;;
76610;SDS011;65503;48.534;9.062;2024-01-07T02:50:33;18.77;;;7.95;;
76610;SDS011;65503;48.534;9.062;2024-01-07T02:53:00;25.98;;;10.20;;
76610;SDS011;65503;48.534;9.062;2024-01-07T02:55:26;22.83;;;8.63;;
76610;SDS011;65503;48.534;9.062;2024-01-07T02:57:53;28.48;;;9.85;;
76610;SDS011;65503;48.534;9.062;2024-01-07T03:00:19;29.63;;;9.63;;
76610;SDS011;65503;48.534;9.062;2024-01-07T03:02:46;23.92;;;10.13;;
76610;SDS011;65503;48.534;9.062;2024-01-07T03:05:13;22.33;;;9.25;;
76610;SDS011;65503;48.534;9.062;2024-01-07T03:07:39;24.92;;;8.90;;
76610;SDS011;65503;48.534;9.062;2024-01-07T03:10:06;22.65;;;9.43;;
76610;SDS011;65503;48.534;9.062;2024-01-07T03:12:33;29.45;;;9.70;;
76610;SDS011;65503;48.534;9.062;2024-01-07T03:14:59;24.75;;;9.60;;
76610;SDS011;65503;48.534;9.062;2024-01-07T03:17:26;23.85;;;8.98;;
76610;SDS011;65503;48.534;9.062;2024-01-07T03:19:53;23.83;;;8.82;;
76610;SDS011;65503;48.534;9.062;2024-01-07T03:22:20;22.17;;;9.00;;
76610;SDS011;65503;48.534;9.062;2024-01-07T03:24:46;25.70;;;9.15;;
76610;SDS011;65503;48.534;9.062;2024-01-07T03:27:13;26.15;;;10.27;;
76610;SDS011;65503;48.534;9.062;2024-01-07T03:29:39;26.33;;;9.65;;
76610;SDS011;65503;48.534;9.062;2024-01-07T03:32:06;25.33;;;9.15;;
76610;SDS011;65503;48.534;9.062;2024-01-07T03:34:33;26.63;;;9.60;;
76610;SDS011;65503;48.534;9.062;2024-01-07T03:36:59;27.67;;;10.13;;
76610;SDS011;65503;48.534;9.062;2024-01-07T03:39:26;25.80;;;10.05;;
76610;SDS011;65503;48.534;9.062;2024-01-07T03:41:55;24.80;;;9.85;;
76610;SDS011;65503;48.534;9.062;2024-01-07T03:44:22;24.45;;;8.80;;
76610;SDS011;65503;48.534;9.062;2024-01-07T03:46:49;25.23;;;9.95;;
76610;SDS011;65503;48.534;9.062;2024-01-07T03:49:15;25.50;;;10.73;;
76610;SDS011;65503;48.534;9.062;2024-01-07T03:54:10;26.65;;;10.00;;
76610;SDS011;65503;48.534;9.062;2024-01-07T03:56:37;24.25;;;9.30;;
76610;SDS011;65503;48.534;9.062;2024-01-07T03:59:03;23.85;;;9.63;;
76610;SDS011;65503;48.534;9.062;2024-01-07T04:01:30;26.30;;;10.07;;
76610;SDS011;65503;48.534;9.062;2024-01-07T04:03:57;30.60;;;11.57;;
76610;SDS011;65503;48.534;9.062;2024-01-07T04:06:23;26.50;;;11.75;;
76610;SDS011;65503;48.534;9.062;2024-01-07T04:08:50;26.25;;;10.45;;
76610;SDS011;65503;48.534;9.062;2024-01-07T04:11:17;25.73;;;10.88;;
76610;SDS011;65503;48.534;9.062;2024-01-07T04:13:43;31.02;;;10.48;;
76610;SDS011;65503;48.534;9.062;2024-01-07T04:16:16;23.63;;;10.20;;
76610;SDS011;65503;48.534;9.062;2024-01-07T04:18:44;26.42;;;10.75;;
76610;SDS011;65503;48.534;9.062;2024-01-07T04:21:13;25.35;;;10.02;;
76610;SDS011;65503;48.534;9.062;2024-01-07T04:23:40;28.55;;;10.38;;
76610;SDS011;65503;48.534;9.062;2024-01-07T04:26:07;25.27;;;10.00;;
76610;SDS011;65503;48.534;9.062;2024-01-07T04:28:33;25.73;;;10.23;;
76610;SDS011;65503;48.534;9.062;2024-01-07T04:31:00;26.55;;;10.35;;
76610;SDS011;65503;48.534;9.062;2024-01-07T04:33:27;28.05;;;11.07;;
76610;SDS011;65503;48.534;9.062;2024-01-07T04:35:53;27.27;;;11.02;;
76610;SDS011;65503;48.534;9.062;2024-01-07T04:38:25;25.95;;;11.00;;
76610;SDS011;65503;48.534;9.062;2024-01-07T04:40:51;25.23;;;10.40;;
76610;SDS011;65503;48.534;9.062;2024-01-07T04:43:18;28.80;;;10.18;;
76610;SDS011;65503;48.534;9.062;2024-01-07T04:45:46;25.42;;;11.25;;
76610;SDS011;65503;48.534;9.062;2024-01-07T04:48:13;24.85;;;10.90;;
76610;SDS011;65503;48.534;9.062;2024-01-07T04:50:40;26.60;;;11.38;;
76610;SDS011;65503;48.534;9.062;2024-01-07T04:53:10;24.23;;;10.63;;
76610;SDS011;65503;48.534;9.062;2024-01-07T04:55:36;26.10;;;9.95;;
76610;SDS011;65503;48.534;9.062;2024-01-07T04:58:03;25.80;;;11.77;;
76610;SDS011;65503;48.534;9.062;2024-01-07T05:00:31;28.83;;;11.85;;
76610;SDS011;65503;48.534;9.062;2024-01-07T05:02:57;27.90;;;11.82;;
76610;SDS011;65503;48.534;9.062;2024-01-07T05:05:24;28.33;;;11.68;;
76610;SDS011;65503;48.534;9.062;2024-01-07T05:07:51;28.73;;;12.90;;
76610;SDS011;65503;48.534;9.062;2024-01-07T05:10:17;31.38;;;12.27;;
76610;SDS011;65503;48.534;9.062;2024-01-07T05:12:44;31.20;;;11.93;;
76610;SDS011;65503;48.534;9.062;2024-01-07T05:15:11;27.48;;;12.98;;
76610;SDS011;65503;48.534;9.062;2024-01-07T05:17:37;26.17;;;12.10;;
76610;SDS011;65503;48.534;9.062;2024-01-07T05:20:04;25.42;;;11.10;;
76610;SDS011;65503;48.534;9.062;2024-01-07T05:22:32;31.48;;;12.27;;
76610;SDS011;65503;48.534;9.062;2024-01-07T05:25:00;27.67;;;11.65;;
76610;SDS011;65503;48.534;9.062;2024-01-07T05:27:26;24.80;;;12.55;;
76610;SDS011;65503;48.534;9.062;2024-01-07T05:29:53;29.20;;;12.95;;
76610;SDS011;65503;48.534;9.062;2024-01-07T05:34:48;25.40;;;12.20;;
76610;SDS011;65503;48.534;9.062;2024-01-07T05:37:15;31.73;;;12.32;;
76610;SDS011;65503;48.534;9.062;2024-01-07T05:39:41;27.77;;;11.82;;
76610;SDS011;65503;48.534;9.062;2024-01-07T05:42:08;27.73;;;11.43;;
76610;SDS011;65503;48.534;9.062;2024-01-07T05:44:35;26.77;;;12.50;;
76610;SDS011;65503;48.534;9.062;2024-01-07T05:47:01;28.65;;;12.73;;
76610;SDS011;65503;48.534;9.062;2024-01-07T05:49:28;31.13;;;12.48;;
76610;SDS011;65503;48.534;9.062;2024-01-07T05:51:54;24.98;;;12.02;;
76610;SDS011;65503;48.534;9.062;2024-01-07T05:54:21;29.35;;;11.68;;
76610;SDS011;65503;48.534;9.062;2024-01-07T05:56:48;31.52;;;13.52;;
76610;SDS011;65503;48.534;9.062;2024-01-07T05:59:15;28.33;;;12.23;;
76610;SDS011;65503;48.534;9.062;2024-01-07T06:01:41;27.30;;;12.02;;
76610;SDS011;65503;48.534;9.062;2024-01-07T06:04:08;29.20;;;12.98;;
76610;SDS011;65503;48.534;9.062;2024-01-07T06:06:36;25.90;;;11.95;;
76610;SDS011;65503;48.534;9.062;2024-01-07T06:09:02;28.38;;;13.05;;
76610;SDS011;65503;48.534;9.062;2024-01-07T06:11:30;25.08;;;11.57;;
76610;SDS011;65503;48.534;9.062;2024-01-07T06:13:57;30.33;;;12.50;;
76610;SDS011;65503;48.534;9.062;2024-01-07T06:16:23;27.13;;;12.23;;
76610;SDS011;65503;48.534;9.062;2024-01-07T06:18:49;27.98;;;12.02;;
76610;SDS011;65503;48.534;9.062;2024-01-07T06:21:16;30.00;;;12.57;;
76610;SDS011;65503;48.534;9.062;2024-01-07T06:23:42;28.38;;;11.98;;
76610;SDS011;65503;48.534;9.062;2024-01-07T06:26:09;41.03;;;14.10;;
76610;SDS011;65503;48.534;9.062;2024-01-07T06:28:35;25.45;;;12.00;;
76610;SDS011;65503;48.534;9.062;2024-01-07T06:31:02;33.70;;;12.30;;
76610;SDS011;65503;48.534;9.062;2024-01-07T06:33:30;25.50;;;12.13;;
76610;SDS011;65503;48.534;9.062;2024-01-07T06:35:57;32.75;;;15.60;;
76610;SDS011;65503;48.534;9.062;2024-01-07T06:38:24;29.52;;;12.30;;
76610;SDS011;65503;48.534;9.062;2024-01-07T06:40:50;27.45;;;12.27;;
76610;SDS011;65503;48.534;9.062;2024-01-07T06:43:17;25.63;;;12.30;;
76610;SDS011;65503;48.534;9.062;2024-01-07T06:45:43;27.05;;;13.38;;
76610;SDS011;65503;48.534;9.062;2024-01-07T06:48:10;27.42;;;12.00;;
76610;SDS011;65503;48.534;9.062;2024-01-07T06:50:37;28.02;;;13.20;;
76610;SDS011;65503;48.534;9.062;2024-01-07T06:53:03;25.42;;;11.93;;
76610;SDS011;65503;48.534;9.062;2024-01-07T06:55:30;25.33;;;12.13;;
76610;SDS011;65503;48.534;9.062;2024-01-07T06:57:56;25.95;;;12.00;;
76610;SDS011;65503;48.534;9.062;2024-01-07T07:00:23;29.92;;;13.32;;
76610;SDS011;65503;48.534;9.062;2024-01-07T07:02:49;26.15;;;12.15;;
76610;SDS011;65503;48.534;9.062;2024-01-07T07:05:16;27.95;;;11.10;;
76610;SDS011;65503;48.534;9.062;2024-01-07T07:07:42;25.17;;;12.77;;
76610;SDS011;65503;48.534;9.062;2024-01-07T07:10:09;25.48;;;12.50;;
76610;SDS011;65503;48.534;9.062;2024-01-07T07:12:35;29.80;;;13.43;;
76610;SDS011;65503;48.534;9.062;2024-01-07T07:15:02;25.95;;;12.40;;
76610;SDS011;65503;48.534;9.062;2024-01-07T07:17:29;26.48;;;12.77;;
76610;SDS011;65503;48.534;9.062;2024-01-07T07:19:55;26.60;;;12.35;;
76610;SDS011;65503;48.534;9.062;2024-01-07T07:22:22;26.88;;;12.63;;
76610;SDS011;65503;48.534;9.062;2024-01-07T07:24:49;25.27;;;13.10;;
76610;SDS011;65503;48.534;9.062;2024-01-07T07:27:15;31.90;;;13.25;;
76610;SDS011;65503;48.534;9.062;2024-01-07T07:29:42;34.88;;;13.95;;
76610;SDS011;65503;48.534;9.062;2024-01-07T07:32:08;30.73;;;12.65;;
76610;SDS011;65503;48.534;9.062;2024-01-07T07:34:35;28.00;;;13.25;;
76610;SDS011;65503;48.534;9.062;2024-01-07T07:37:01;30.48;;;14.48;;
76610;SDS011;65503;48.534;9.062;2024-01-07T07:39:28;26.98;;;12.45;;
76610;SDS011;65503;48.534;9.062;2024-01-07T07:41:55;33.75;;;14.63;;
76610;SDS011;65503;48.534;9.062;2024-01-07T07:44:21;29.17;;;14.02;;
76610;SDS011;65503;48.534;9.062;2024-01-07T07:46:48;26.20;;;12.82;;
76610;SDS011;65503;48.534;9.062;2024-01-07T07:49:14;30.48;;;14.32;;
76610;SDS011;65503;48.534;9.062;2024-01-07T07:51:43;27.35;;;12.95;;
76610;SDS011;65503;48.534;9.062;2024-01-07T07:54:10;25.35;;;12.27;;
76610;SDS011;65503;48.534;9.062;2024-01-07T07:56:36;26.27;;;13.18;;
76610;SDS011;65503;48.534;9.062;2024-01-07T07:59:04;29.15;;;13.32;;
76610;SDS011;65503;48.534;9.062;2024-01-07T08:01:31;25.88;;;13.10;;
76610;SDS011;65503;48.534;9.062;2024-01-07T08:03:57;27.13;;;13.18;;
76610;SDS011;65503;48.534;9.062;2024-01-07T08:06:24;26.08;;;12.60;;
76610;SDS011;65503;48.534;9.062;2024-01-07T08:08:50;29.02;;;13.73;;
76610;SDS011;65503;48.534;9.062;2024-01-07T08:11:16;27.02;;;13.25;;
76610;SDS011;65503;48.534;9.062;2024-01-07T08:13:44;28.50;;;14.70;;
76610;SDS011;65503;48.534;9.062;2024-01-07T08:16:10;26.20;;;12.43;;
76610;SDS011;65503;48.534;9.062;2024-01-07T08:18:37;22.73;;;12.23;;
76610;SDS011;65503;48.534;9.062;2024-01-07T08:21:04;28.02;;;13.20;;
76610;SDS011;65503;48.534;9.062;2024-01-07T08:23:30;26.42;;;14.10;;
76610;SDS011;65503;48.534;9.062;2024-01-07T08:25:57;29.27;;;14.27;;
76610;SDS011;65503;48.534;9.062;2024-01-07T08:28:24;27.42;;;13.35;;
76610;SDS011;65503;48.534;9.062;2024-01-07T08:30:50;23.55;;;12.43;;
76610;SDS011;65503;48.534;9.062;2024-01-07T08:33:19;21.92;;;12.45;;
76610;SDS011;65503;48.534;9.062;2024-01-07T08:35:46;24.60;;;12.23;;
76610;SDS011;65503;48.534;9.062;2024-01-07T08:38:12;22.25;;;11.77;;
76610;SDS011;65503;48.534;9.062;2024-01-07T08:40:39;20.30;;;10.88;;
76610;SDS011;65503;48.534;9.062;2024-01-07T08:43:05;23.42;;;11.90;;
76610;SDS011;65503;48.534;9.062;2024-01-07T08:45:32;22.88;;;11.50;;
76610;SDS011;65503;48.534;9.062;2024-01-07T08:47:59;23.75;;;12.15;;
76610;SDS011;65503;48.534;9.062;2024-01-07T08:50:26;24.50;;;11.13;;
76610;SDS011;65503;48.534;9.062;2024-01-07T08:52:52;22.35;;;11.30;;
76610;SDS011;65503;48.534;9.062;2024-01-07T08:55:18;22.05;;;11.43;;
76610;SDS011;65503;48.534;9.062;2024-01-07T08:57:45;20.67;;;10.38;;
76610;SDS011;65503;48.534;9.062;2024-01-07T09:00:15;19.92;;;10.07;;
76610;SDS011;65503;48.534;9.062;2024-01-07T09:02:42;20.52;;;10.30;;
76610;SDS011;65503;48.534;9.062;2024-01-07T09:05:09;24.30;;;10.90;;
76610;SDS011;65503;48.534;9.062;2024-01-07T09:07:38;20.05;;;9.95;;
76610;SDS011;65503;48.534;9.062;2024-01-07T09:10:05;23.55;;;10.23;;
76610;SDS011;65503;48.534;9.062;2024-01-07T09:12:37;19.48;;;9.38;;
76610;SDS011;65503;48.534;9.062;2024-01-07T09:15:04;20.67;;;10.82;;
76610;SDS011;65503;48.534;9.062;2024-01-07T09:17:37;22.52;;;10.73;;
76610;SDS011;65503;48.534;9.062;2024-01-07T09:20:04;20.20;;;10.05;;
76610;SDS011;65503;48.534;9.062;2024-01-07T09:22:34;18.85;;;9.35;;
76610;SDS011;65503;48.534;9.062;2024-01-07T09:25:04;20.65;;;10.18;;
76610;SDS011;65503;48.534;9.062;2024-01-07T09:27:32;22.73;;;10.75;;
76610;SDS011;65503;48.534;9.062;2024-01-07T09:29:59;20.35;;;10.20;;
76610;SDS011;65503;48.534;9.062;2024-01-07T09:32:26;18.52;;;9.35;;
76610;SDS011;65503;48.534;9.062;2024-01-07T09:34:52;20.42;;;9.95;;
76610;SDS011;65503;48.534;9.062;2024-01-07T09:37:19;18.88;;;9.75;;
76610;SDS011;65503;48.534;9.062;2024-01-07T09:39:46;18.10;;;9.25;;
76610;SDS011;65503;48.534;9.062;2024-01-07T09:42:13;20.25;;;10.07;;
76610;SDS011;65503;48.534;9.062;2024-01-07T09:44:41;20.33;;;9.00;;
76610;SDS011;65503;48.534;9.062;2024-01-07T09:47:11;18.98;;;9.25;;
76610;SDS011;65503;48.534;9.062;2024-01-07T09:49:39;18.20;;;9.20;;
76610;SDS011;65503;48.534;9.062;2024-01-07T09:52:07;17.92;;;8.07;;
76610;SDS011;65503;48.534;9.062;2024-01-07T09:57:05;15.77;;;7.85;;
76610;SDS011;65503;48.534;9.062;2024-01-07T09:59:33;17.33;;;7.10;;
76610;SDS011;65503;48.534;9.062;2024-01-07T10:02:00;17.02;;;8.88;;
76610;SDS011;65503;48.534;9.062;2024-01-07T10:04:27;19.92;;;8.70;;
76610;SDS011;65503;48.534;9.062;2024-01-07T10:06:55;18.35;;;8.13;;
76610;SDS011;65503;48.534;9.062;2024-01-07T10:09:22;18.27;;;8.10;;
76610;SDS011;65503;48.534;9.062;2024-01-07T10:11:49;18.33;;;7.78;;
76610;SDS011;65503;48.534;9.062;2024-01-07T10:14:16;17.60;;;8.77;;
76610;SDS011;65503;48.534;9.062;2024-01-07T10:16:42;18.45;;;8.07;;
76610;SDS011;65503;48.534;9.062;2024-01-07T10:19:09;18.23;;;8.60;;
76610;SDS011;65503;48.534;9.062;2024-01-07T10:21:36;19.45;;;8.50;;
76610;SDS011;65503;48.534;9.062;2024-01-07T10:24:09;18.80;;;9.05;;
76610;SDS011;65503;48.534;9.062;2024-01-07T10:26:40;21.05;;;9.13;;
76610;SDS011;65503;48.534;9.062;2024-01-07T10:29:07;16.02;;;7.80;;
76610;SDS011;65503;48.534;9.062;2024-01-07T10:31:37;16.55;;;7.68;;
76610;SDS011;65503;48.534;9.062;2024-01-07T10:34:09;16.55;;;7.47;;
76610;SDS011;65503;48.534;9.062;2024-01-07T10:36:36;15.52;;;7.22;;
76610;SDS011;65503;48.534;9.062;2024-01-07T10:39:03;13.93;;;6.55;;
76610;SDS011;65503;48.534;9.062;2024-01-07T10:41:30;13.40;;;6.68;;
76610;SDS011;65503;48.534;9.062;2024-01-07T10:43:58;15.73;;;7.00;;
76610;SDS011;65503;48.534;9.062;2024-01-07T10:46:25;15.45;;;6.35;;
76610;SDS011;65503;48.534;9.062;2024-01-07T10:49:00;12.88;;;5.88;;
76610;SDS011;65503;48.534;9.062;2024-01-07T10:51:32;14.68;;;6.78;;
76610;SDS011;65503;48.534;9.062;2024-01-07T10:54:01;15.70;;;6.85;;
76610;SDS011;65503;48.534;9.062;2024-01-07T10:56:31;12.27;;;6.07;;
76610;SDS011;65503;48.534;9.062;2024-01-07T10:59:04;13.60;;;6.25;;
76610;SDS011;65503;48.534;9.062;2024-01-07T11:01:31;12.13;;;6.18;;
76610;SDS011;65503;48.534;9.062;2024-01-07T11:04:10;13.35;;;6.68;;
76610;SDS011;65503;48.534;9.062;2024-01-07T11:09:35;12.75;;;5.93;;
76610;SDS011;65503;48.534;9.062;2024-01-07T11:12:05;11.77;;;6.20;;
76610;SDS011;65503;48.534;9.062;2024-01-07T11:14:40;10.98;;;5.47;;
76610;SDS011;65503;48.534;9.062;2024-01-07T11:17:11;11.45;;;5.35;;
76610;SDS011;65503;48.534;9.062;2024-01-07T11:19:49;9.85;;;5.00;;
76610;SDS011;65503;48.534;9.062;2024-01-07T11:22:24;15.43;;;6.40;;
76610;SDS011;65503;48.534;9.062;2024-01-07T11:24:51;9.80;;;4.93;;
76610;SDS011;65503;48.534;9.062;2024-01-07T11:27:18;9.93;;;4.63;;
76610;SDS011;65503;48.534;9.062;2024-01-07T11:29:54;11.82;;;5.32;;
76610;SDS011;65503;48.534;9.062;2024-01-07T11:32:44;11.32;;;4.90;;
76610;SDS011;65503;48.534;9.062;2024-01-07T11:35:21;11.80;;;5.78;;
76610;SDS011;65503;48.534;9.062;2024-01-07T11:38:19;11.70;;;5.63;;
76610;SDS011;65503;48.534;9.062;2024-01-07T11:40:45;11.82;;;5.93;;
76610;SDS011;65503;48.534;9.062;2024-01-07T11:43:15;13.45;;;6.47;;
76610;SDS011;65503;48.534;9.062;2024-01-07T11:45:41;12.15;;;6.40;;
76610;SDS011;65503;48.534;9.062;2024-01-07T11:48:08;16.40;;;6.13;;
76610;SDS011;65503;48.534;9.062;2024-01-07T11:50:35;12.50;;;6.10;;
76610;SDS011;65503;48.534;9.062;2024-01-07T11:53:01;13.57;;;6.15;;
76610;SDS011;65503;48.534;9.062;2024-01-07T11:55:28;14.65;;;6.22;;
76610;SDS011;65503;48.534;9.062;2024-01-07T11:58:00;13.25;;;6.25;;
76610;SDS011;65503;48.534;9.062;2024-01-07T12:00:30;17.35;;;7.35;;
76610;SDS011;65503;48.534;9.062;2024-01-07T12:02:58;14.52;;;6.57;;
76610;SDS011;65503;48.534;9.062;2024-01-07T12:05:25;15.23;;;6.85;;
76610;SDS011;65503;48.534;9.062;2024-01-07T12:07:52;13.68;;;6.82;;
76610;SDS011;65503;48.534;9.062;2024-01-07T12:10:19;15.68;;;7.40;;
76610;SDS011;65503;48.534;9.062;2024-01-07T12:12:45;13.35;;;6.53;;
76610;SDS011;65503;48.534;9.062;2024-01-07T12:15:13;14.40;;;6.80;;
76610;SDS011;65503;48.534;9.062;2024-01-07T12:17:41;12.73;;;6.32;;
76610;SDS011;65503;48.534;9.062;2024-01-07T12:20:07;15.98;;;7.35;;
76610;SDS011;65503;48.534;9.062;2024-01-07T12:22:40;11.88;;;5.60;;
76610;SDS011;65503;48.534;9.062;2024-01-07T12:25:07;13.27;;;6.15;;
76610;SDS011;65503;48.534;9.062;2024-01-07T12:27:34;12.07;;;5.50;;
76610;SDS011;65503;48.534;9.062;2024-01-07T12:30:04;11.45;;;5.38;;
76610;SDS011;65503;48.534;9.062;2024-01-07T12:32:31;13.07;;;5.93;;
76610;SDS011;65503;48.534;9.062;2024-01-07T12:34:58;11.68;;;5.75;;
76610;SDS011;65503;48.534;9.062;2024-01-07T12:37:28;12.60;;;5.82;;
76610;SDS011;65503;48.534;9.062;2024-01-07T12:39:55;11.88;;;5.75;;
76610;SDS011;65503;48.534;9.062;2024-01-07T12:42:21;12.98;;;5.72;;
76610;SDS011;65503;48.534;9.062;2024-01-07T12:44:49;11.20;;;5.65;;
76610;SDS011;65503;48.534;9.062;2024-01-07T12:47:16;11.50;;;5.53;;
76610;SDS011;65503;48.534;9.062;2024-01-07T12:49:42;12.25;;;6.07;;
76610;SDS011;65503;48.534;9.062;2024-01-07T12:52:09;13.15;;;6.32;;
76610;SDS011;65503;48.534;9.062;2024-01-07T12:54:36;11.98;;;5.78;;
76610;SDS011;65503;48.534;9.062;2024-01-07T12:57:04;11.75;;;5.85;;
76610;SDS011;65503;48.534;9.062;2024-01-07T12:59:31;16.00;;;6.07;;
76610;SDS011;65503;48.534;9.062;2024-01-07T13:01:57;13.15;;;6.47;;
76610;SDS011;65503;48.534;9.062;2024-01-07T13:04:24;12.35;;;5.95;;
76610;SDS011;65503;48.534;9.062;2024-01-07T13:06:50;13.43;;;5.88;;
76610;SDS011;65503;48.534;9.062;2024-01-07T13:09:17;15.30;;;7.70;;
76610;SDS011;65503;48.534;9.062;2024-01-07T13:11:43;13.20;;;6.50;;
76610;SDS011;65503;48.534;9.062;2024-01-07T13:14:10;14.13;;;6.78;;
76610;SDS011;65503;48.534;9.062;2024-01-07T13:16:37;15.20;;;7.18;;
76610;SDS011;65503;48.534;9.062;2024-01-07T13:19:03;13.13;;;6.85;;
76610;SDS011;65503;48.534;9.062;2024-01-07T13:21:30;13.75;;;7.30;;
76610;SDS011;65503;48.534;9.062;2024-01-07T13:23:58;15.18;;;7.10;;
76610;SDS011;65503;48.534;9.062;2024-01-07T13:26:26;14.73;;;7.10;;
76610;SDS011;65503;48.534;9.062;2024-01-07T13:28:52;14.00;;;7.15;;
76610;SDS011;65503;48.534;9.062;2024-01-07T13:31:19;14.45;;;7.18;;
76610;SDS011;65503;48.534;9.062;2024-01-07T13:33:46;16.77;;;7.82;;
76610;SDS011;65503;48.534;9.062;2024-01-07T13:36:13;15.10;;;7.47;;
76610;SDS011;65503;48.534;9.062;2024-01-07T13:38:40;13.77;;;7.18;;
76610;SDS011;65503;48.534;9.062;2024-01-07T13:41:09;13.93;;;6.88;;
76610;SDS011;65503;48.534;9.062;2024-01-07T13:43:37;13.40;;;6.90;;
76610;SDS011;65503;48.534;9.062;2024-01-07T13:46:07;14.63;;;7.55;;
76610;SDS011;65503;48.534;9.062;2024-01-07T13:48:33;15.10;;;7.75;;
76610;SDS011;65503;48.534;9.062;2024-01-07T13:51:01;16.88;;;7.72;;
76610;SDS011;65503;48.534;9.062;2024-01-07T13:53:28;15.55;;;8.15;;
76610;SDS011;65503;48.534;9.062;2024-01-07T13:55:55;16.10;;;8.45;;
76610;SDS011;65503;48.534;9.062;2024-01-07T13:58:22;18.27;;;8.05;;
76610;SDS011;65503;48.534;9.062;2024-01-07T14:00:49;19.17;;;7.30;;
76610;SDS011;65503;48.534;9.062;2024-01-07T14:03:18;18.33;;;8.23;;
76610;SDS011;65503;48.534;9.062;2024-01-07T14:05:46;15.82;;;7.93;;
76610;SDS011;65503;48.534;9.062;2024-01-07T14:08:13;15.93;;;8.02;;
76610;SDS011;65503;48.534;9.062;2024-01-07T14:10:40;16.38;;;7.72;;
76610;SDS011;65503;48.534;9.062;2024-01-07T14:13:07;18.90;;;8.70;;
76610;SDS011;65503;48.534;9.062;2024-01-07T14:15:33;15.82;;;8.02;;
76610;SDS011;65503;48.534;9.062;2024-01-07T14:18:00;15.60;;;7.93;;
76610;SDS011;65503;48.534;9.062;2024-01-07T14:20:27;17.75;;;8.45;;
76610;SDS011;65503;48.534;9.062;2024-01-07T14:22:54;14.75;;;8.38;;
76610;SDS011;65503;48.534;9.062;2024-01-07T14:25:21;17.15;;;8.13;;
76610;SDS011;65503;48.534;9.062;2024-01-07T14:27:47;17.33;;;8.02;;
76610;SDS011;65503;48.534;9.062;2024-01-07T14:30:14;16.70;;;8.73;;
76610;SDS011;65503;48.534;9.062;2024-01-07T14:32:41;17.35;;;8.43;;
76610;SDS011;65503;48.534;9.062;2024-01-07T14:35:07;20.85;;;8.98;;
76610;SDS011;65503;48.534;9.062;2024-01-07T14:37:34;16.48;;;7.75;;
76610;SDS011;65503;48.534;9.062;2024-01-07T14:40:01;16.20;;;8.25;;